BAW273 EGLL-TBPB
Flight info
| Callsign | BAW273 |
|---|---|
| Flight time | 4h 3m |
| Altitude | 26000 |
| Route | CPT DCT ROTLU/N0740F260F450 DCT PEWBI/M200F450F600 DCT 4859N01443W NATSP 2700N04748W 2438N05000W 1800N05539W/N0449F390 DCT 1321N05937W DCT BGI |
| Aircraft | CONC/H-SRWXY/C |
Departure
| Time | 2026-05-07 11:49 |
|---|---|
| Airport | London Heathrow Airport (EGLL) |
Arrival
| Time | 2026-05-07 15:53 |
|---|---|
| Airport | Grantley Adams International Airport (TBPB) |
| Time | Latitude | Longitude | Altitude | Speed | Heading |
|---|---|---|---|---|---|
| 2026-05-07 11:30 | 51.46139 | -0.44443 | 93 ft | 0 kts | 297° |
| 2026-05-07 11:37 | 51.46134 | -0.44415 | 94 ft | 4 kts | 309° |
| 2026-05-07 11:37 | 51.46125 | -0.44378 | 97 ft | 4 kts | 339° |
| 2026-05-07 11:38 | 51.46107 | -0.44355 | 97 ft | 4 kts | 11° |
| 2026-05-07 11:38 | 51.46081 | -0.44360 | 97 ft | 4 kts | 24° |
| 2026-05-07 11:38 | 51.46065 | -0.44372 | 96 ft | 0 kts | 23° |
| 2026-05-07 11:41 | 51.46080 | -0.44362 | 97 ft | 5 kts | 23° |
| 2026-05-07 11:41 | 51.46137 | -0.44323 | 96 ft | 14 kts | 23° |
| 2026-05-07 11:41 | 51.46220 | -0.44266 | 96 ft | 11 kts | 23° |
| 2026-05-07 11:41 | 51.46288 | -0.44235 | 96 ft | 9 kts | 353° |
| 2026-05-07 11:42 | 51.46321 | -0.44320 | 95 ft | 11 kts | 286° |
| 2026-05-07 11:42 | 51.46325 | -0.44467 | 95 ft | 14 kts | 270° |
| 2026-05-07 11:42 | 51.46324 | -0.44619 | 94 ft | 14 kts | 265° |
| 2026-05-07 11:42 | 51.46318 | -0.44801 | 95 ft | 18 kts | 269° |
| 2026-05-07 11:43 | 51.46317 | -0.45022 | 96 ft | 22 kts | 270° |
| 2026-05-07 11:43 | 51.46316 | -0.45271 | 96 ft | 21 kts | 270° |
| 2026-05-07 11:43 | 51.46316 | -0.45481 | 98 ft | 17 kts | 270° |
| 2026-05-07 11:43 | 51.46321 | -0.45660 | 95 ft | 16 kts | 277° |
| 2026-05-07 11:44 | 51.46323 | -0.45853 | 95 ft | 19 kts | 270° |
| 2026-05-07 11:44 | 51.46323 | -0.46073 | 95 ft | 21 kts | 269° |
| 2026-05-07 11:44 | 51.46320 | -0.46325 | 95 ft | 24 kts | 269° |
| 2026-05-07 11:44 | 51.46319 | -0.46635 | 96 ft | 30 kts | 270° |
| 2026-05-07 11:45 | 51.46324 | -0.46947 | 96 ft | 26 kts | 272° |
| 2026-05-07 11:45 | 51.46319 | -0.47206 | 96 ft | 22 kts | 267° |
| 2026-05-07 11:45 | 51.46336 | -0.47423 | 94 ft | 17 kts | 282° |
| 2026-05-07 11:45 | 51.46338 | -0.47587 | 95 ft | 15 kts | 269° |
| 2026-05-07 11:46 | 51.46300 | -0.47735 | 95 ft | 15 kts | 243° |
| 2026-05-07 11:46 | 51.46253 | -0.47889 | 97 ft | 15 kts | 250° |
| 2026-05-07 11:46 | 51.46248 | -0.48048 | 94 ft | 14 kts | 269° |
| 2026-05-07 11:46 | 51.46247 | -0.48215 | 94 ft | 17 kts | 269° |
| 2026-05-07 11:47 | 51.46246 | -0.48407 | 94 ft | 17 kts | 269° |
| 2026-05-07 11:47 | 51.46254 | -0.48576 | 95 ft | 14 kts | 288° |
| 2026-05-07 11:47 | 51.46306 | -0.48708 | 95 ft | 15 kts | 322° |
| 2026-05-07 11:47 | 51.46406 | -0.48750 | 95 ft | 14 kts | 353° |
| 2026-05-07 11:48 | 51.46468 | -0.48708 | 96 ft | 6 kts | 57° |
| 2026-05-07 11:48 | 51.46475 | -0.48648 | 98 ft | 20 kts | 81° |
| 2026-05-07 11:48 | 51.46483 | -0.47927 | 96 ft | 110 kts | 90° |
| 2026-05-07 11:48 | 51.46485 | -0.46243 | 97 ft | 190 kts | 89° |
| 2026-05-07 11:49 | 51.46499 | -0.43806 | 583 ft | 232 kts | 89° |
| 2026-05-07 11:49 | 51.46514 | -0.41210 | 2068 ft | 237 kts | 90° |
| 2026-05-07 11:49 | 51.46538 | -0.38531 | 3076 ft | 235 kts | 89° |
| 2026-05-07 11:49 | 51.46462 | -0.35914 | 3294 ft | 247 kts | 105° |
| 2026-05-07 11:50 | 51.45429 | -0.33717 | 3144 ft | 244 kts | 155° |
| 2026-05-07 11:50 | 51.43786 | -0.33228 | 3532 ft | 246 kts | 195° |
| 2026-05-07 11:50 | 51.42277 | -0.34344 | 4346 ft | 238 kts | 215° |
| 2026-05-07 11:50 | 51.40915 | -0.35981 | 5012 ft | 251 kts | 230° |
| 2026-05-07 11:51 | 51.40167 | -0.38431 | 5618 ft | 254 kts | 266° |
| 2026-05-07 11:51 | 51.40211 | -0.41308 | 6397 ft | 258 kts | 277° |
| 2026-05-07 11:51 | 51.40457 | -0.44201 | 7180 ft | 264 kts | 279° |
| 2026-05-07 11:51 | 51.40771 | -0.47163 | 7735 ft | 276 kts | 280° |
| 2026-05-07 11:52 | 51.41128 | -0.50236 | 7951 ft | 283 kts | 281° |
| 2026-05-07 11:52 | 51.41505 | -0.53328 | 8065 ft | 282 kts | 281° |
| 2026-05-07 11:52 | 51.41891 | -0.56409 | 8213 ft | 279 kts | 281° |
| 2026-05-07 11:52 | 51.42270 | -0.59398 | 8968 ft | 276 kts | 281° |
| 2026-05-07 11:53 | 51.42659 | -0.62452 | 9754 ft | 282 kts | 281° |
| 2026-05-07 11:53 | 51.43040 | -0.65558 | 10540 ft | 287 kts | 276° |
| 2026-05-07 11:53 | 51.43227 | -0.68773 | 11324 ft | 295 kts | 273° |
| 2026-05-07 11:53 | 51.43410 | -0.72161 | 12126 ft | 316 kts | 277° |
| 2026-05-07 11:54 | 51.43775 | -0.75756 | 12943 ft | 338 kts | 280° |
| 2026-05-07 11:54 | 51.44245 | -0.79573 | 13769 ft | 360 kts | 280° |
| 2026-05-07 11:54 | 51.44776 | -0.83621 | 14530 ft | 382 kts | 281° |
| 2026-05-07 11:54 | 51.45301 | -0.87909 | 15291 ft | 403 kts | 279° |
| 2026-05-07 11:55 | 51.45812 | -0.92438 | 16064 ft | 423 kts | 279° |
| 2026-05-07 11:55 | 51.46348 | -0.97194 | 16848 ft | 443 kts | 279° |
| 2026-05-07 11:55 | 51.46914 | -1.02160 | 17674 ft | 461 kts | 279° |
| 2026-05-07 11:55 | 51.47503 | -1.07317 | 18487 ft | 479 kts | 279° |
| 2026-05-07 11:56 | 51.48106 | -1.12634 | 19220 ft | 493 kts | 279° |
| 2026-05-07 11:56 | 51.48634 | -1.18127 | 19989 ft | 498 kts | 271° |
| 2026-05-07 11:56 | 51.48613 | -1.23685 | 20762 ft | 501 kts | 266° |
| 2026-05-07 11:56 | 51.48307 | -1.29273 | 21557 ft | 505 kts | 261° |
| 2026-05-07 11:57 | 51.47751 | -1.34801 | 22352 ft | 512 kts | 259° |
| 2026-05-07 11:57 | 51.47128 | -1.40457 | 23175 ft | 517 kts | 259° |
| 2026-05-07 11:57 | 51.46481 | -1.46163 | 23955 ft | 524 kts | 259° |
| 2026-05-07 11:57 | 51.45825 | -1.51944 | 24680 ft | 530 kts | 259° |
| 2026-05-07 11:58 | 51.45163 | -1.57799 | 25399 ft | 538 kts | 259° |
| 2026-05-07 11:58 | 51.44487 | -1.63749 | 25789 ft | 546 kts | 259° |
| 2026-05-07 11:58 | 51.43804 | -1.69748 | 25944 ft | 545 kts | 259° |
| 2026-05-07 11:58 | 51.43124 | -1.75690 | 26004 ft | 540 kts | 259° |
| 2026-05-07 11:59 | 51.42443 | -1.81602 | 26033 ft | 542 kts | 259° |
| 2026-05-07 11:59 | 51.41757 | -1.87537 | 26045 ft | 543 kts | 259° |
| 2026-05-07 11:59 | 51.41066 | -1.93486 | 26045 ft | 542 kts | 259° |
| 2026-05-07 11:59 | 51.40373 | -1.99423 | 26041 ft | 542 kts | 258° |
| 2026-05-07 12:00 | 51.39678 | -2.05358 | 26047 ft | 543 kts | 258° |
| 2026-05-07 12:00 | 51.38979 | -2.11293 | 26052 ft | 543 kts | 258° |
| 2026-05-07 12:00 | 51.38276 | -2.17233 | 26051 ft | 543 kts | 258° |
| 2026-05-07 12:00 | 51.37571 | -2.23166 | 26049 ft | 543 kts | 258° |
| 2026-05-07 12:01 | 51.36863 | -2.29098 | 26044 ft | 543 kts | 258° |
| 2026-05-07 12:01 | 51.36151 | -2.35037 | 26035 ft | 543 kts | 258° |
| 2026-05-07 12:01 | 51.35438 | -2.40961 | 26037 ft | 542 kts | 258° |
| 2026-05-07 12:01 | 51.34721 | -2.46880 | 26036 ft | 543 kts | 258° |
| 2026-05-07 12:02 | 51.34000 | -2.52813 | 26041 ft | 543 kts | 258° |
| 2026-05-07 12:02 | 51.33278 | -2.58731 | 26046 ft | 543 kts | 258° |
| 2026-05-07 12:02 | 51.32551 | -2.64660 | 26044 ft | 543 kts | 258° |
| 2026-05-07 12:02 | 51.31822 | -2.70579 | 26049 ft | 543 kts | 258° |
| 2026-05-07 12:03 | 51.31215 | -2.76531 | 26054 ft | 543 kts | 263° |
| 2026-05-07 12:03 | 51.30950 | -2.82555 | 26059 ft | 544 kts | 269° |
| 2026-05-07 12:03 | 51.30963 | -2.88582 | 26047 ft | 545 kts | 270° |
| 2026-05-07 12:03 | 51.31019 | -2.94659 | 26047 ft | 545 kts | 270° |
| 2026-05-07 12:04 | 51.31089 | -3.00707 | 26054 ft | 545 kts | 270° |
| 2026-05-07 12:04 | 51.31157 | -3.06765 | 26040 ft | 544 kts | 270° |
| 2026-05-07 12:04 | 51.31217 | -3.12788 | 26034 ft | 540 kts | 270° |
| 2026-05-07 12:04 | 51.31271 | -3.18787 | 26032 ft | 539 kts | 270° |
| 2026-05-07 12:05 | 51.31321 | -3.24780 | 26033 ft | 541 kts | 270° |
| 2026-05-07 12:05 | 51.31368 | -3.30791 | 26035 ft | 542 kts | 270° |
| 2026-05-07 12:05 | 51.31413 | -3.36817 | 26036 ft | 542 kts | 270° |
| 2026-05-07 12:05 | 51.31454 | -3.42841 | 26035 ft | 542 kts | 270° |
| 2026-05-07 12:06 | 51.31492 | -3.48854 | 26038 ft | 542 kts | 270° |
| 2026-05-07 12:06 | 51.31527 | -3.54884 | 26036 ft | 543 kts | 270° |
| 2026-05-07 12:06 | 51.31559 | -3.60918 | 26037 ft | 543 kts | 269° |
| 2026-05-07 12:06 | 51.31588 | -3.66951 | 26032 ft | 543 kts | 269° |
| 2026-05-07 12:07 | 51.31614 | -3.72920 | 26029 ft | 544 kts | 269° |
| 2026-05-07 12:07 | 51.31637 | -3.79031 | 26030 ft | 544 kts | 269° |
| 2026-05-07 12:07 | 51.31656 | -3.85141 | 26037 ft | 558 kts | 269° |
| 2026-05-07 12:07 | 51.31673 | -3.91347 | 26069 ft | 573 kts | 269° |
| 2026-05-07 12:08 | 51.31688 | -3.97850 | 26153 ft | 582 kts | 269° |
| 2026-05-07 12:08 | 51.31698 | -4.04269 | 26330 ft | 585 kts | 269° |
| 2026-05-07 12:08 | 51.31706 | -4.10806 | 27151 ft | 577 kts | 269° |
| 2026-05-07 12:08 | 51.31709 | -4.17012 | 28639 ft | 559 kts | 269° |
| 2026-05-07 12:09 | 51.31708 | -4.23252 | 29456 ft | 567 kts | 269° |
| 2026-05-07 12:09 | 51.31704 | -4.29579 | 30288 ft | 573 kts | 269° |
| 2026-05-07 12:09 | 51.31698 | -4.35997 | 31011 ft | 580 kts | 269° |
| 2026-05-07 12:09 | 51.31688 | -4.42478 | 31927 ft | 588 kts | 269° |
| 2026-05-07 12:10 | 51.31673 | -4.49105 | 32722 ft | 604 kts | 269° |
| 2026-05-07 12:10 | 51.31654 | -4.55916 | 33363 ft | 622 kts | 269° |
| 2026-05-07 12:10 | 51.31631 | -4.62927 | 34018 ft | 640 kts | 269° |
| 2026-05-07 12:10 | 51.31602 | -4.70146 | 34616 ft | 658 kts | 269° |
| 2026-05-07 12:11 | 51.31568 | -4.77564 | 35205 ft | 676 kts | 269° |
| 2026-05-07 12:11 | 51.31529 | -4.85166 | 35768 ft | 694 kts | 268° |
| 2026-05-07 12:11 | 51.31483 | -4.92979 | 36294 ft | 711 kts | 268° |
| 2026-05-07 12:11 | 51.31329 | -5.00969 | 36821 ft | 725 kts | 262° |
| 2026-05-07 12:12 | 51.30387 | -5.08930 | 37371 ft | 736 kts | 252° |
| 2026-05-07 12:12 | 51.28784 | -5.16786 | 37681 ft | 752 kts | 252° |
| 2026-05-07 12:12 | 51.27233 | -5.24848 | 38113 ft | 765 kts | 252° |
| 2026-05-07 12:12 | 51.25674 | -5.33032 | 38518 ft | 778 kts | 252° |
| 2026-05-07 12:13 | 51.24079 | -5.41362 | 38841 ft | 790 kts | 252° |
| 2026-05-07 12:13 | 51.22454 | -5.49797 | 39170 ft | 800 kts | 252° |
| 2026-05-07 12:13 | 51.20803 | -5.58322 | 39541 ft | 811 kts | 252° |
| 2026-05-07 12:13 | 51.19119 | -5.66969 | 39918 ft | 822 kts | 252° |
| 2026-05-07 12:14 | 51.17406 | -5.75725 | 40306 ft | 833 kts | 252° |
| 2026-05-07 12:14 | 51.15661 | -5.84599 | 40715 ft | 845 kts | 252° |
| 2026-05-07 12:14 | 51.13885 | -5.93586 | 41143 ft | 858 kts | 252° |
| 2026-05-07 12:14 | 51.12073 | -6.02718 | 41611 ft | 871 kts | 252° |
| 2026-05-07 12:15 | 51.10226 | -6.11974 | 42072 ft | 885 kts | 252° |
| 2026-05-07 12:15 | 51.08341 | -6.21380 | 42578 ft | 900 kts | 252° |
| 2026-05-07 12:15 | 51.06418 | -6.30932 | 43109 ft | 915 kts | 252° |
| 2026-05-07 12:15 | 51.04454 | -6.40632 | 43649 ft | 931 kts | 252° |
| 2026-05-07 12:16 | 51.02446 | -6.50510 | 44179 ft | 947 kts | 252° |
| 2026-05-07 12:16 | 51.00398 | -6.60527 | 44722 ft | 963 kts | 252° |
| 2026-05-07 12:16 | 50.98306 | -6.70708 | 45274 ft | 978 kts | 252° |
| 2026-05-07 12:16 | 50.96177 | -6.81016 | 45671 ft | 988 kts | 251° |
| 2026-05-07 12:17 | 50.94018 | -6.91416 | 45772 ft | 996 kts | 251° |
| 2026-05-07 12:17 | 50.91838 | -7.01864 | 45955 ft | 1003 kts | 251° |
| 2026-05-07 12:17 | 50.90380 | -7.08821 | 46102 ft | 1007 kts | 251° |
| 2026-05-07 12:17 | 50.88157 | -7.19382 | 46305 ft | 1013 kts | 251° |
| 2026-05-07 12:18 | 50.85912 | -7.29992 | 46500 ft | 1019 kts | 251° |
| 2026-05-07 12:18 | 50.83642 | -7.40661 | 46694 ft | 1025 kts | 251° |
| 2026-05-07 12:18 | 50.81354 | -7.51362 | 46855 ft | 1031 kts | 251° |
| 2026-05-07 12:18 | 50.79042 | -7.62116 | 47006 ft | 1036 kts | 251° |
| 2026-05-07 12:19 | 50.76708 | -7.72912 | 47173 ft | 1041 kts | 251° |
| 2026-05-07 12:19 | 50.74355 | -7.83745 | 47322 ft | 1046 kts | 251° |
| 2026-05-07 12:19 | 50.71979 | -7.94626 | 47466 ft | 1050 kts | 251° |
| 2026-05-07 12:19 | 50.69581 | -8.05546 | 47597 ft | 1055 kts | 251° |
| 2026-05-07 12:20 | 50.67166 | -8.16488 | 47725 ft | 1059 kts | 251° |
| 2026-05-07 12:20 | 50.64733 | -8.27452 | 47846 ft | 1063 kts | 251° |
| 2026-05-07 12:20 | 50.62281 | -8.38446 | 47974 ft | 1066 kts | 250° |
| 2026-05-07 12:20 | 50.59809 | -8.49471 | 48086 ft | 1070 kts | 250° |
| 2026-05-07 12:21 | 50.57316 | -8.60530 | 48174 ft | 1073 kts | 250° |
| 2026-05-07 12:21 | 50.54804 | -8.71616 | 48283 ft | 1077 kts | 250° |
| 2026-05-07 12:21 | 50.52279 | -8.82701 | 48387 ft | 1080 kts | 250° |
| 2026-05-07 12:22 | 50.47173 | -9.04942 | 48551 ft | 1086 kts | 250° |
| 2026-05-07 12:22 | 50.41994 | -9.27265 | 48706 ft | 1091 kts | 250° |
| 2026-05-07 12:23 | 50.36749 | -9.49641 | 48839 ft | 1096 kts | 250° |
| 2026-05-07 12:23 | 50.31435 | -9.72070 | 48964 ft | 1100 kts | 250° |
| 2026-05-07 12:24 | 50.26063 | -9.94520 | 49067 ft | 1104 kts | 249° |
| 2026-05-07 12:24 | 50.20628 | -10.16993 | 49164 ft | 1107 kts | 249° |
| 2026-05-07 12:25 | 50.15174 | -10.39321 | 49235 ft | 1110 kts | 249° |
| 2026-05-07 12:25 | 50.09629 | -10.61795 | 49313 ft | 1112 kts | 249° |
| 2026-05-07 12:26 | 50.04029 | -10.84257 | 49370 ft | 1114 kts | 249° |
| 2026-05-07 12:26 | 49.98373 | -11.06722 | 49411 ft | 1116 kts | 249° |
| 2026-05-07 12:27 | 49.92666 | -11.29158 | 49449 ft | 1117 kts | 248° |
| 2026-05-07 12:27 | 49.86914 | -11.51555 | 49483 ft | 1119 kts | 248° |
| 2026-05-07 12:28 | 49.81112 | -11.73922 | 49516 ft | 1120 kts | 248° |
| 2026-05-07 12:28 | 49.75260 | -11.96260 | 49544 ft | 1121 kts | 248° |
| 2026-05-07 12:29 | 49.69360 | -12.18568 | 49588 ft | 1122 kts | 248° |
| 2026-05-07 12:29 | 49.63413 | -12.40832 | 49598 ft | 1123 kts | 248° |
| 2026-05-07 12:30 | 49.57418 | -12.63067 | 49631 ft | 1123 kts | 248° |
| 2026-05-07 12:30 | 49.51378 | -12.85252 | 49656 ft | 1124 kts | 247° |
| 2026-05-07 12:31 | 49.45286 | -13.07419 | 49673 ft | 1125 kts | 247° |
| 2026-05-07 12:31 | 49.39158 | -13.29513 | 49688 ft | 1125 kts | 247° |
| 2026-05-07 12:32 | 49.33017 | -13.51439 | 49687 ft | 1126 kts | 247° |
| 2026-05-07 12:32 | 49.26793 | -13.73463 | 49685 ft | 1127 kts | 247° |
| 2026-05-07 12:33 | 49.17377 | -14.06402 | 49686 ft | 1127 kts | 246° |
| 2026-05-07 12:33 | 49.11043 | -14.28304 | 49689 ft | 1127 kts | 246° |
| 2026-05-07 12:34 | 49.04671 | -14.50143 | 49680 ft | 1127 kts | 246° |
| 2026-05-07 12:34 | 48.98244 | -14.71926 | 49702 ft | 1127 kts | 244° |
| 2026-05-07 12:35 | 48.90522 | -14.92649 | 49738 ft | 1126 kts | 241° |
| 2026-05-07 12:35 | 48.82753 | -15.13316 | 49574 ft | 1123 kts | 240° |
| 2026-05-07 12:36 | 48.78880 | -15.23575 | 49365 ft | 1119 kts | 240° |
| 2026-05-07 12:36 | 48.75010 | -15.33798 | 49186 ft | 1115 kts | 240° |
| 2026-05-07 12:36 | 48.67286 | -15.54065 | 48985 ft | 1109 kts | 240° |
| 2026-05-07 12:37 | 48.59538 | -15.74238 | 49108 ft | 1110 kts | 240° |
| 2026-05-07 12:37 | 48.51738 | -15.94387 | 49140 ft | 1112 kts | 240° |
| 2026-05-07 12:38 | 48.43902 | -16.14481 | 49168 ft | 1113 kts | 240° |
| 2026-05-07 12:38 | 48.36017 | -16.34544 | 49214 ft | 1115 kts | 239° |
| 2026-05-07 12:39 | 48.28083 | -16.54582 | 49243 ft | 1116 kts | 239° |
| 2026-05-07 12:39 | 48.20112 | -16.74564 | 49279 ft | 1117 kts | 239° |
| 2026-05-07 12:40 | 48.12093 | -16.94517 | 49296 ft | 1118 kts | 239° |
| 2026-05-07 12:40 | 48.04040 | -17.14405 | 49317 ft | 1119 kts | 239° |
| 2026-05-07 12:41 | 47.95941 | -17.34261 | 49323 ft | 1120 kts | 239° |
| 2026-05-07 12:41 | 47.87799 | -17.54077 | 49338 ft | 1121 kts | 239° |
| 2026-05-07 12:42 | 47.79622 | -17.73832 | 49351 ft | 1122 kts | 238° |
| 2026-05-07 12:42 | 47.71404 | -17.93544 | 49364 ft | 1122 kts | 238° |
| 2026-05-07 12:43 | 47.63204 | -18.13068 | 49370 ft | 1123 kts | 238° |
| 2026-05-07 12:43 | 47.54901 | -18.32697 | 49358 ft | 1124 kts | 238° |
| 2026-05-07 12:44 | 47.46566 | -18.52261 | 49362 ft | 1125 kts | 238° |
| 2026-05-07 12:44 | 47.38196 | -18.71766 | 49379 ft | 1125 kts | 238° |
| 2026-05-07 12:45 | 47.29779 | -18.91243 | 49389 ft | 1126 kts | 237° |
| 2026-05-07 12:45 | 47.21332 | -19.10652 | 49420 ft | 1126 kts | 237° |
| 2026-05-07 12:46 | 47.12846 | -19.30012 | 49421 ft | 1127 kts | 237° |
| 2026-05-07 12:46 | 47.04328 | -19.49308 | 49434 ft | 1127 kts | 237° |
| 2026-05-07 12:47 | 46.95771 | -19.68559 | 49431 ft | 1128 kts | 237° |
| 2026-05-07 12:47 | 46.87176 | -19.87761 | 49426 ft | 1128 kts | 237° |
| 2026-05-07 12:48 | 46.78620 | -20.06964 | 49433 ft | 1129 kts | 238° |
| 2026-05-07 12:48 | 46.70162 | -20.26257 | 49412 ft | 1129 kts | 237° |
| 2026-05-07 12:49 | 46.61662 | -20.45495 | 49394 ft | 1130 kts | 237° |
| 2026-05-07 12:49 | 46.53122 | -20.64693 | 49392 ft | 1131 kts | 237° |
| 2026-05-07 12:50 | 46.44550 | -20.83829 | 49380 ft | 1132 kts | 237° |
| 2026-05-07 12:50 | 46.35936 | -21.02927 | 49368 ft | 1132 kts | 237° |
| 2026-05-07 12:51 | 46.27283 | -21.21984 | 49369 ft | 1133 kts | 237° |
| 2026-05-07 12:51 | 46.18594 | -21.40986 | 49390 ft | 1134 kts | 236° |
| 2026-05-07 12:52 | 46.09870 | -21.59939 | 49377 ft | 1134 kts | 236° |
| 2026-05-07 12:52 | 46.01176 | -21.78699 | 49385 ft | 1135 kts | 236° |
| 2026-05-07 12:53 | 45.92382 | -21.97549 | 49370 ft | 1136 kts | 236° |
| 2026-05-07 12:53 | 45.83551 | -22.16352 | 49377 ft | 1136 kts | 236° |
| 2026-05-07 12:54 | 45.74684 | -22.35107 | 49363 ft | 1137 kts | 236° |
| 2026-05-07 12:54 | 45.65781 | -22.53812 | 49356 ft | 1138 kts | 236° |
| 2026-05-07 12:55 | 45.56840 | -22.72475 | 49356 ft | 1138 kts | 236° |
| 2026-05-07 12:55 | 45.47866 | -22.91083 | 49356 ft | 1139 kts | 236° |
| 2026-05-07 12:56 | 45.38857 | -23.09642 | 49356 ft | 1140 kts | 236° |
| 2026-05-07 12:56 | 45.29810 | -23.28159 | 49354 ft | 1140 kts | 236° |
| 2026-05-07 12:57 | 45.20734 | -23.46615 | 49355 ft | 1140 kts | 236° |
| 2026-05-07 12:57 | 45.16198 | -23.55794 | 49130 ft | 1135 kts | 236° |
| 2026-05-07 12:57 | 45.11668 | -23.64931 | 48893 ft | 1130 kts | 236° |
| 2026-05-07 12:58 | 45.07155 | -23.74005 | 48659 ft | 1124 kts | 235° |
| 2026-05-07 12:58 | 45.02666 | -23.83002 | 48438 ft | 1118 kts | 235° |
| 2026-05-07 12:58 | 44.98189 | -23.91948 | 48265 ft | 1112 kts | 236° |
| 2026-05-07 12:58 | 44.93721 | -24.00876 | 48272 ft | 1112 kts | 236° |
| 2026-05-07 12:59 | 44.89263 | -24.09746 | 48390 ft | 1113 kts | 235° |
| 2026-05-07 12:59 | 44.84762 | -24.18674 | 48424 ft | 1114 kts | 235° |
| 2026-05-07 12:59 | 44.75763 | -24.36442 | 48430 ft | 1115 kts | 235° |
| 2026-05-07 13:00 | 44.66722 | -24.54183 | 48516 ft | 1117 kts | 235° |
| 2026-05-07 13:00 | 44.57641 | -24.71893 | 48603 ft | 1119 kts | 234° |
| 2026-05-07 13:01 | 44.48509 | -24.89595 | 48682 ft | 1122 kts | 234° |
| 2026-05-07 13:01 | 44.39328 | -25.07283 | 48739 ft | 1125 kts | 235° |
| 2026-05-07 13:02 | 44.30102 | -25.24948 | 48765 ft | 1127 kts | 234° |
| 2026-05-07 13:02 | 44.20830 | -25.42595 | 48764 ft | 1127 kts | 234° |
| 2026-05-07 13:03 | 44.11531 | -25.60184 | 48763 ft | 1128 kts | 234° |
| 2026-05-07 13:03 | 44.02221 | -25.77689 | 48770 ft | 1128 kts | 234° |
| 2026-05-07 13:04 | 43.92917 | -25.95080 | 48781 ft | 1127 kts | 234° |
| 2026-05-07 13:04 | 43.83541 | -26.12499 | 48779 ft | 1127 kts | 234° |
| 2026-05-07 13:05 | 43.74147 | -26.29850 | 48795 ft | 1126 kts | 234° |
| 2026-05-07 13:05 | 43.64729 | -26.47140 | 48808 ft | 1126 kts | 234° |
| 2026-05-07 13:06 | 43.56822 | -26.61580 | 48810 ft | 1126 kts | 234° |
| 2026-05-07 13:06 | 43.47356 | -26.78773 | 48818 ft | 1125 kts | 234° |
| 2026-05-07 13:07 | 43.37877 | -26.95888 | 48828 ft | 1124 kts | 234° |
| 2026-05-07 13:07 | 43.28375 | -27.12946 | 48837 ft | 1124 kts | 233° |
| 2026-05-07 13:08 | 43.18845 | -27.29955 | 48951 ft | 1126 kts | 233° |
| 2026-05-07 13:08 | 43.09275 | -27.46938 | 49026 ft | 1128 kts | 233° |
| 2026-05-07 13:09 | 42.99728 | -27.63783 | 49067 ft | 1129 kts | 233° |
| 2026-05-07 13:09 | 42.90075 | -27.80719 | 49116 ft | 1130 kts | 233° |
| 2026-05-07 13:10 | 42.80390 | -27.97613 | 49177 ft | 1132 kts | 233° |
| 2026-05-07 13:10 | 42.70662 | -28.14486 | 49224 ft | 1134 kts | 233° |
| 2026-05-07 13:11 | 42.60906 | -28.31312 | 49271 ft | 1135 kts | 233° |
| 2026-05-07 13:11 | 42.51103 | -28.48125 | 49319 ft | 1136 kts | 233° |
| 2026-05-07 13:12 | 42.41268 | -28.64896 | 49369 ft | 1137 kts | 233° |
| 2026-05-07 13:12 | 42.31402 | -28.81627 | 49426 ft | 1138 kts | 233° |
| 2026-05-07 13:13 | 42.21511 | -28.98305 | 49485 ft | 1138 kts | 233° |
| 2026-05-07 13:13 | 42.11587 | -29.14947 | 49533 ft | 1139 kts | 233° |
| 2026-05-07 13:14 | 42.01633 | -29.31548 | 49580 ft | 1139 kts | 233° |
| 2026-05-07 13:14 | 41.91660 | -29.48088 | 49642 ft | 1139 kts | 233° |
| 2026-05-07 13:15 | 41.81671 | -29.64564 | 49708 ft | 1139 kts | 233° |
| 2026-05-07 13:15 | 41.71636 | -29.81024 | 49787 ft | 1139 kts | 232° |
| 2026-05-07 13:16 | 41.61586 | -29.97417 | 49867 ft | 1140 kts | 232° |
| 2026-05-07 13:16 | 41.51523 | -30.13786 | 49963 ft | 1141 kts | 232° |
| 2026-05-07 13:17 | 41.41428 | -30.30125 | 50044 ft | 1142 kts | 232° |
| 2026-05-07 13:17 | 41.31300 | -30.46426 | 50222 ft | 1143 kts | 232° |
| 2026-05-07 13:18 | 41.26226 | -30.54561 | 50495 ft | 1141 kts | 232° |
| 2026-05-07 13:18 | 41.21156 | -30.62667 | 50866 ft | 1139 kts | 232° |
| 2026-05-07 13:18 | 41.16094 | -30.70739 | 51081 ft | 1139 kts | 232° |
| 2026-05-07 13:18 | 41.11010 | -30.78824 | 51081 ft | 1141 kts | 232° |
| 2026-05-07 13:19 | 41.00819 | -30.94966 | 51316 ft | 1142 kts | 232° |
| 2026-05-07 13:19 | 40.95726 | -31.03002 | 51690 ft | 1141 kts | 232° |
| 2026-05-07 13:19 | 40.90619 | -31.11040 | 52009 ft | 1140 kts | 232° |
| 2026-05-07 13:20 | 40.80387 | -31.27077 | 52083 ft | 1143 kts | 232° |
| 2026-05-07 13:20 | 40.75249 | -31.35098 | 52248 ft | 1144 kts | 232° |
| 2026-05-07 13:20 | 40.70110 | -31.43099 | 52655 ft | 1142 kts | 232° |
| 2026-05-07 13:21 | 40.64974 | -31.51076 | 53083 ft | 1141 kts | 232° |
| 2026-05-07 13:21 | 40.59909 | -31.58922 | 53259 ft | 1142 kts | 232° |
| 2026-05-07 13:21 | 40.49586 | -31.74850 | 53366 ft | 1145 kts | 232° |
| 2026-05-07 13:22 | 40.44414 | -31.82799 | 53736 ft | 1144 kts | 232° |
| 2026-05-07 13:22 | 40.39250 | -31.90717 | 54298 ft | 1141 kts | 232° |
| 2026-05-07 13:22 | 40.34095 | -31.98600 | 54842 ft | 1138 kts | 232° |
| 2026-05-07 13:22 | 40.28934 | -32.06472 | 55141 ft | 1138 kts | 232° |
| 2026-05-07 13:23 | 40.23769 | -32.14330 | 55284 ft | 1139 kts | 232° |
| 2026-05-07 13:23 | 40.18592 | -32.22185 | 55459 ft | 1140 kts | 232° |
| 2026-05-07 13:23 | 40.13417 | -32.30018 | 55837 ft | 1139 kts | 232° |
| 2026-05-07 13:23 | 40.08241 | -32.37832 | 56376 ft | 1136 kts | 232° |
| 2026-05-07 13:24 | 40.03069 | -32.45621 | 56898 ft | 1134 kts | 232° |
| 2026-05-07 13:24 | 39.97897 | -32.53390 | 57230 ft | 1134 kts | 232° |
| 2026-05-07 13:24 | 39.92718 | -32.61149 | 57391 ft | 1135 kts | 232° |
| 2026-05-07 13:24 | 39.87529 | -32.68904 | 57496 ft | 1137 kts | 232° |
| 2026-05-07 13:25 | 39.82330 | -32.76656 | 57776 ft | 1136 kts | 232° |
| 2026-05-07 13:25 | 39.77132 | -32.84386 | 58264 ft | 1134 kts | 232° |
| 2026-05-07 13:25 | 39.71940 | -32.92086 | 58865 ft | 1131 kts | 232° |
| 2026-05-07 13:25 | 39.66750 | -32.99768 | 59398 ft | 1129 kts | 232° |
| 2026-05-07 13:26 | 39.61569 | -33.07416 | 59695 ft | 1129 kts | 232° |
| 2026-05-07 13:26 | 39.56381 | -33.15055 | 59872 ft | 1130 kts | 232° |
| 2026-05-07 13:26 | 39.51177 | -33.22698 | 59981 ft | 1132 kts | 232° |
| 2026-05-07 13:26 | 39.45958 | -33.30345 | 60045 ft | 1134 kts | 232° |
| 2026-05-07 13:27 | 39.35517 | -33.45587 | 60099 ft | 1128 kts | 232° |
| 2026-05-07 13:27 | 39.25087 | -33.60739 | 60114 ft | 1130 kts | 232° |
| 2026-05-07 13:28 | 39.14632 | -33.75855 | 60129 ft | 1131 kts | 231° |
| 2026-05-07 13:28 | 39.04113 | -33.90987 | 60149 ft | 1135 kts | 231° |
| 2026-05-07 13:29 | 38.93543 | -34.06121 | 60171 ft | 1140 kts | 231° |
| 2026-05-07 13:29 | 38.82931 | -34.21242 | 60173 ft | 1140 kts | 231° |
| 2026-05-07 13:30 | 38.72290 | -34.36331 | 60182 ft | 1141 kts | 231° |
| 2026-05-07 13:30 | 38.61631 | -34.51373 | 60192 ft | 1141 kts | 231° |
| 2026-05-07 13:31 | 38.50956 | -34.66366 | 60205 ft | 1139 kts | 231° |
| 2026-05-07 13:31 | 38.40354 | -34.81186 | 60231 ft | 1137 kts | 231° |
| 2026-05-07 13:32 | 38.29690 | -34.96024 | 60214 ft | 1134 kts | 231° |
| 2026-05-07 13:32 | 38.19042 | -35.10769 | 60225 ft | 1130 kts | 231° |
| 2026-05-07 13:33 | 38.08415 | -35.25417 | 60224 ft | 1124 kts | 231° |
| 2026-05-07 13:33 | 37.97826 | -35.39947 | 60237 ft | 1118 kts | 231° |
| 2026-05-07 13:34 | 37.82032 | -35.61495 | 60251 ft | 1110 kts | 231° |
| 2026-05-07 13:35 | 37.71520 | -35.75755 | 60249 ft | 1105 kts | 231° |
| 2026-05-07 13:35 | 37.61037 | -35.89915 | 60263 ft | 1103 kts | 231° |
| 2026-05-07 13:36 | 37.50570 | -36.03990 | 60265 ft | 1099 kts | 230° |
| 2026-05-07 13:36 | 37.40101 | -36.18005 | 60266 ft | 1096 kts | 230° |
| 2026-05-07 13:37 | 37.29660 | -36.31922 | 60261 ft | 1094 kts | 230° |
| 2026-05-07 13:37 | 37.19220 | -36.45778 | 60267 ft | 1090 kts | 230° |
| 2026-05-07 13:38 | 37.08790 | -36.59561 | 60277 ft | 1089 kts | 230° |
| 2026-05-07 13:38 | 36.98370 | -36.73273 | 60271 ft | 1087 kts | 230° |
| 2026-05-07 13:39 | 36.87946 | -36.86931 | 60281 ft | 1084 kts | 230° |
| 2026-05-07 13:39 | 36.77517 | -37.00538 | 60286 ft | 1084 kts | 230° |
| 2026-05-07 13:40 | 36.67085 | -37.14093 | 60303 ft | 1083 kts | 230° |
| 2026-05-07 13:40 | 36.56721 | -37.27502 | 60293 ft | 1081 kts | 230° |
| 2026-05-07 13:41 | 36.46280 | -37.40956 | 60297 ft | 1080 kts | 229° |
| 2026-05-07 13:41 | 36.35835 | -37.54359 | 60296 ft | 1080 kts | 229° |
| 2026-05-07 13:42 | 36.25392 | -37.67704 | 60307 ft | 1077 kts | 229° |
| 2026-05-07 13:42 | 36.14941 | -37.81005 | 60308 ft | 1076 kts | 229° |
| 2026-05-07 13:43 | 36.04490 | -37.94253 | 60307 ft | 1076 kts | 229° |
| 2026-05-07 13:43 | 35.94036 | -38.07451 | 60306 ft | 1074 kts | 229° |
| 2026-05-07 13:44 | 35.83570 | -38.20611 | 60311 ft | 1074 kts | 229° |
| 2026-05-07 13:44 | 35.73102 | -38.33721 | 60308 ft | 1073 kts | 229° |
| 2026-05-07 13:45 | 35.62626 | -38.46788 | 60310 ft | 1072 kts | 229° |
| 2026-05-07 13:45 | 35.52152 | -38.59802 | 60310 ft | 1072 kts | 229° |
| 2026-05-07 13:46 | 35.41662 | -38.72784 | 60316 ft | 1071 kts | 229° |
| 2026-05-07 13:46 | 35.31160 | -38.85729 | 60316 ft | 1070 kts | 228° |
| 2026-05-07 13:47 | 35.20657 | -38.98626 | 60309 ft | 1070 kts | 228° |
| 2026-05-07 13:47 | 35.10215 | -39.11399 | 60320 ft | 1069 kts | 228° |
| 2026-05-07 13:48 | 34.99629 | -39.24297 | 60307 ft | 1068 kts | 228° |
| 2026-05-07 13:48 | 34.89174 | -39.36988 | 60316 ft | 1068 kts | 228° |
| 2026-05-07 13:49 | 34.78635 | -39.49731 | 60315 ft | 1068 kts | 227° |
| 2026-05-07 13:49 | 34.68085 | -39.62438 | 60316 ft | 1068 kts | 227° |
| 2026-05-07 13:50 | 34.57514 | -39.75124 | 60310 ft | 1068 kts | 227° |
| 2026-05-07 13:50 | 34.46936 | -39.87769 | 60310 ft | 1068 kts | 227° |
| 2026-05-07 13:51 | 34.36340 | -40.00393 | 60314 ft | 1068 kts | 227° |
| 2026-05-07 13:51 | 34.25731 | -40.12941 | 60306 ft | 1068 kts | 227° |
| 2026-05-07 13:52 | 34.15096 | -40.25477 | 60298 ft | 1067 kts | 227° |
| 2026-05-07 13:52 | 34.04458 | -40.37970 | 60305 ft | 1067 kts | 227° |
| 2026-05-07 13:53 | 33.93815 | -40.50424 | 60306 ft | 1067 kts | 227° |
| 2026-05-07 13:53 | 33.84963 | -40.60747 | 60301 ft | 1066 kts | 226° |
| 2026-05-07 13:54 | 33.74297 | -40.73144 | 60299 ft | 1066 kts | 226° |
| 2026-05-07 13:54 | 33.63625 | -40.85503 | 60297 ft | 1065 kts | 226° |
| 2026-05-07 13:55 | 33.52943 | -40.97828 | 60291 ft | 1065 kts | 226° |
| 2026-05-07 13:55 | 33.42255 | -41.10117 | 60284 ft | 1066 kts | 226° |
| 2026-05-07 13:56 | 33.31556 | -41.22374 | 60284 ft | 1065 kts | 226° |
| 2026-05-07 13:56 | 33.20839 | -41.34607 | 60277 ft | 1065 kts | 226° |
| 2026-05-07 13:57 | 33.10112 | -41.46808 | 60277 ft | 1065 kts | 226° |
| 2026-05-07 13:57 | 32.99384 | -41.58967 | 60278 ft | 1064 kts | 226° |
| 2026-05-07 13:58 | 32.88657 | -41.71083 | 60277 ft | 1063 kts | 226° |
| 2026-05-07 13:58 | 32.77904 | -41.83184 | 60266 ft | 1064 kts | 226° |
| 2026-05-07 13:59 | 32.67153 | -41.95242 | 60262 ft | 1063 kts | 226° |
| 2026-05-07 13:59 | 32.56395 | -42.07265 | 60265 ft | 1062 kts | 225° |
| 2026-05-07 14:00 | 32.45698 | -42.19179 | 60257 ft | 1063 kts | 225° |
| 2026-05-07 14:00 | 32.34918 | -42.31145 | 60263 ft | 1062 kts | 225° |
| 2026-05-07 14:01 | 32.24129 | -42.43079 | 60261 ft | 1062 kts | 225° |
| 2026-05-07 14:01 | 32.13335 | -42.54979 | 60260 ft | 1061 kts | 225° |
| 2026-05-07 14:02 | 32.02544 | -42.66835 | 60254 ft | 1060 kts | 225° |
| 2026-05-07 14:02 | 31.91733 | -42.78673 | 60255 ft | 1061 kts | 225° |
| 2026-05-07 14:03 | 31.80920 | -42.90473 | 60250 ft | 1061 kts | 225° |
| 2026-05-07 14:03 | 31.70087 | -43.02255 | 60244 ft | 1060 kts | 225° |
| 2026-05-07 14:04 | 31.59255 | -43.13997 | 60254 ft | 1061 kts | 225° |
| 2026-05-07 14:04 | 31.48400 | -43.25725 | 60245 ft | 1060 kts | 225° |
| 2026-05-07 14:05 | 31.37552 | -43.37407 | 60252 ft | 1061 kts | 225° |
| 2026-05-07 14:05 | 31.26672 | -43.49085 | 60237 ft | 1061 kts | 225° |
| 2026-05-07 14:06 | 31.15794 | -43.60723 | 60244 ft | 1061 kts | 225° |
| 2026-05-07 14:06 | 31.04899 | -43.72341 | 60245 ft | 1060 kts | 224° |
| 2026-05-07 14:07 | 30.93999 | -43.83926 | 60233 ft | 1061 kts | 224° |
| 2026-05-07 14:07 | 30.83085 | -43.95489 | 60233 ft | 1060 kts | 224° |
| 2026-05-07 14:08 | 30.72166 | -44.07021 | 60233 ft | 1061 kts | 224° |
| 2026-05-07 14:08 | 30.61236 | -44.18527 | 60227 ft | 1060 kts | 224° |
| 2026-05-07 14:09 | 30.50364 | -44.29935 | 60222 ft | 1060 kts | 224° |
| 2026-05-07 14:09 | 30.39418 | -44.41385 | 60217 ft | 1060 kts | 224° |
| 2026-05-07 14:10 | 30.28468 | -44.52804 | 60215 ft | 1060 kts | 224° |
| 2026-05-07 14:10 | 30.17500 | -44.64206 | 60214 ft | 1059 kts | 224° |
| 2026-05-07 14:11 | 30.06536 | -44.75567 | 60216 ft | 1060 kts | 224° |
| 2026-05-07 14:11 | 29.95561 | -44.86905 | 60215 ft | 1059 kts | 224° |
| 2026-05-07 14:12 | 29.84571 | -44.98223 | 60210 ft | 1058 kts | 224° |
| 2026-05-07 14:12 | 29.73577 | -45.09511 | 60205 ft | 1059 kts | 223° |
| 2026-05-07 14:13 | 29.62580 | -45.20767 | 60200 ft | 1059 kts | 223° |
| 2026-05-07 14:13 | 29.51570 | -45.32002 | 60197 ft | 1058 kts | 223° |
| 2026-05-07 14:14 | 29.40558 | -45.43205 | 60198 ft | 1058 kts | 223° |
| 2026-05-07 14:14 | 29.29543 | -45.54378 | 60198 ft | 1058 kts | 223° |
| 2026-05-07 14:15 | 29.18508 | -45.65537 | 60189 ft | 1057 kts | 223° |
| 2026-05-07 14:15 | 29.07482 | -45.76654 | 60191 ft | 1057 kts | 223° |
| 2026-05-07 14:16 | 28.96442 | -45.87752 | 60187 ft | 1057 kts | 223° |
| 2026-05-07 14:16 | 28.85389 | -45.98829 | 60186 ft | 1056 kts | 223° |
| 2026-05-07 14:17 | 28.74345 | -46.09866 | 60185 ft | 1056 kts | 223° |
| 2026-05-07 14:17 | 28.63287 | -46.20885 | 60183 ft | 1056 kts | 223° |
| 2026-05-07 14:18 | 28.52225 | -46.31876 | 60183 ft | 1055 kts | 223° |
| 2026-05-07 14:18 | 28.41156 | -46.42841 | 60176 ft | 1055 kts | 223° |
| 2026-05-07 14:19 | 28.30089 | -46.53773 | 60169 ft | 1056 kts | 223° |
| 2026-05-07 14:19 | 28.19005 | -46.64691 | 60171 ft | 1055 kts | 222° |
| 2026-05-07 14:20 | 28.07908 | -46.75589 | 60171 ft | 1054 kts | 222° |
| 2026-05-07 14:20 | 27.96811 | -46.86457 | 60173 ft | 1055 kts | 222° |
| 2026-05-07 14:21 | 27.85796 | -46.97215 | 60174 ft | 1054 kts | 222° |
| 2026-05-07 14:21 | 27.74675 | -47.08046 | 60157 ft | 1054 kts | 222° |
| 2026-05-07 14:22 | 27.63558 | -47.18842 | 60160 ft | 1055 kts | 222° |
| 2026-05-07 14:22 | 27.52441 | -47.29609 | 60159 ft | 1054 kts | 222° |
| 2026-05-07 14:23 | 27.41301 | -47.40368 | 60158 ft | 1054 kts | 222° |
| 2026-05-07 14:23 | 27.30163 | -47.51095 | 60155 ft | 1054 kts | 222° |
| 2026-05-07 14:24 | 27.19014 | -47.61804 | 60152 ft | 1054 kts | 222° |
| 2026-05-07 14:24 | 27.07851 | -47.72497 | 60150 ft | 1054 kts | 221° |
| 2026-05-07 14:25 | 26.96692 | -47.83159 | 60150 ft | 1054 kts | 221° |
| 2026-05-07 14:25 | 26.85524 | -47.93807 | 60146 ft | 1054 kts | 221° |
| 2026-05-07 14:26 | 26.74344 | -48.04436 | 60156 ft | 1055 kts | 221° |
| 2026-05-07 14:26 | 26.63156 | -48.15046 | 60144 ft | 1055 kts | 221° |
| 2026-05-07 14:27 | 26.51958 | -48.25637 | 60136 ft | 1054 kts | 221° |
| 2026-05-07 14:27 | 26.40746 | -48.36212 | 60136 ft | 1055 kts | 221° |
| 2026-05-07 14:28 | 26.29534 | -48.46760 | 60139 ft | 1055 kts | 221° |
| 2026-05-07 14:28 | 26.18314 | -48.57288 | 60142 ft | 1054 kts | 221° |
| 2026-05-07 14:29 | 26.07083 | -48.67798 | 60128 ft | 1055 kts | 221° |
| 2026-05-07 14:29 | 25.95846 | -48.78287 | 60136 ft | 1055 kts | 221° |
| 2026-05-07 14:30 | 25.84602 | -48.88756 | 60130 ft | 1054 kts | 221° |
| 2026-05-07 14:30 | 25.73353 | -48.99202 | 60132 ft | 1055 kts | 221° |
| 2026-05-07 14:31 | 25.62090 | -49.09634 | 60126 ft | 1055 kts | 221° |
| 2026-05-07 14:31 | 25.50888 | -49.19984 | 60127 ft | 1055 kts | 221° |
| 2026-05-07 14:32 | 25.39613 | -49.30375 | 60125 ft | 1055 kts | 221° |
| 2026-05-07 14:32 | 25.28328 | -49.40749 | 60123 ft | 1055 kts | 220° |
| 2026-05-07 14:33 | 25.17024 | -49.51115 | 60120 ft | 1056 kts | 220° |
| 2026-05-07 14:33 | 25.05721 | -49.61454 | 60124 ft | 1055 kts | 220° |
| 2026-05-07 14:34 | 24.94407 | -49.71777 | 60116 ft | 1056 kts | 220° |
| 2026-05-07 14:34 | 24.83094 | -49.82074 | 60121 ft | 1056 kts | 220° |
| 2026-05-07 14:35 | 24.71759 | -49.92366 | 60111 ft | 1056 kts | 220° |
| 2026-05-07 14:35 | 24.60422 | -50.02637 | 60113 ft | 1056 kts | 220° |
| 2026-05-07 14:36 | 24.49091 | -50.12896 | 60111 ft | 1056 kts | 220° |
| 2026-05-07 14:36 | 24.37749 | -50.23137 | 60114 ft | 1056 kts | 220° |
| 2026-05-07 14:37 | 24.26401 | -50.33360 | 60114 ft | 1056 kts | 220° |
| 2026-05-07 14:37 | 24.09363 | -50.48663 | 60107 ft | 1056 kts | 220° |
| 2026-05-07 14:38 | 23.97995 | -50.58842 | 60108 ft | 1056 kts | 220° |
| 2026-05-07 14:38 | 23.86618 | -50.69007 | 60112 ft | 1056 kts | 220° |
| 2026-05-07 14:39 | 23.75237 | -50.79151 | 60107 ft | 1056 kts | 220° |
| 2026-05-07 14:39 | 23.63842 | -50.89283 | 60104 ft | 1056 kts | 220° |
| 2026-05-07 14:40 | 23.52448 | -50.99391 | 60113 ft | 1057 kts | 220° |
| 2026-05-07 14:40 | 23.41116 | -51.09422 | 60110 ft | 1057 kts | 220° |
| 2026-05-07 14:41 | 23.29706 | -51.19498 | 60099 ft | 1056 kts | 220° |
| 2026-05-07 14:41 | 23.18283 | -51.29563 | 60101 ft | 1056 kts | 220° |
| 2026-05-07 14:42 | 23.08713 | -51.37978 | 60104 ft | 1057 kts | 219° |
| 2026-05-07 14:42 | 22.97278 | -51.48011 | 60095 ft | 1057 kts | 219° |
| 2026-05-07 14:43 | 22.85833 | -51.58031 | 60102 ft | 1057 kts | 219° |
| 2026-05-07 14:43 | 22.74393 | -51.68024 | 60096 ft | 1057 kts | 219° |
| 2026-05-07 14:44 | 22.63009 | -51.77947 | 60088 ft | 1057 kts | 219° |
| 2026-05-07 14:44 | 22.51550 | -51.87912 | 60095 ft | 1057 kts | 219° |
| 2026-05-07 14:45 | 22.40075 | -51.97869 | 60099 ft | 1058 kts | 219° |
| 2026-05-07 14:45 | 22.28596 | -52.07810 | 60094 ft | 1057 kts | 219° |
| 2026-05-07 14:46 | 22.17112 | -52.17732 | 60101 ft | 1057 kts | 219° |
| 2026-05-07 14:46 | 22.05626 | -52.27635 | 60105 ft | 1058 kts | 219° |
| 2026-05-07 14:47 | 21.94128 | -52.37526 | 60095 ft | 1058 kts | 219° |
| 2026-05-07 14:47 | 21.82632 | -52.47395 | 60090 ft | 1058 kts | 219° |
| 2026-05-07 14:48 | 21.71104 | -52.57271 | 60084 ft | 1059 kts | 219° |
| 2026-05-07 14:48 | 21.59573 | -52.67128 | 60087 ft | 1059 kts | 219° |
| 2026-05-07 14:49 | 21.48044 | -52.76963 | 60090 ft | 1059 kts | 219° |
| 2026-05-07 14:49 | 21.36493 | -52.86796 | 60084 ft | 1060 kts | 219° |
| 2026-05-07 14:50 | 21.24940 | -52.96611 | 60088 ft | 1059 kts | 219° |
| 2026-05-07 14:50 | 21.13372 | -53.06418 | 60076 ft | 1060 kts | 219° |
| 2026-05-07 14:51 | 21.01809 | -53.16200 | 60077 ft | 1060 kts | 219° |
| 2026-05-07 14:51 | 20.90234 | -53.25974 | 60084 ft | 1060 kts | 219° |
| 2026-05-07 14:52 | 20.78645 | -53.35738 | 60075 ft | 1060 kts | 219° |
| 2026-05-07 14:52 | 20.67060 | -53.45481 | 60074 ft | 1061 kts | 219° |
| 2026-05-07 14:53 | 20.55462 | -53.55214 | 60076 ft | 1060 kts | 219° |
| 2026-05-07 14:53 | 20.43858 | -53.64933 | 60073 ft | 1060 kts | 219° |
| 2026-05-07 14:54 | 20.32256 | -53.74632 | 60072 ft | 1060 kts | 219° |
| 2026-05-07 14:54 | 20.20641 | -53.84322 | 60073 ft | 1061 kts | 219° |
| 2026-05-07 14:55 | 20.09015 | -53.94002 | 60079 ft | 1060 kts | 219° |
| 2026-05-07 14:55 | 19.97396 | -54.03659 | 60066 ft | 1061 kts | 219° |
| 2026-05-07 14:56 | 19.85753 | -54.13316 | 60065 ft | 1061 kts | 219° |
| 2026-05-07 14:56 | 19.74188 | -54.22890 | 60068 ft | 1061 kts | 218° |
| 2026-05-07 14:57 | 19.62539 | -54.32516 | 60075 ft | 1062 kts | 218° |
| 2026-05-07 14:57 | 19.50889 | -54.42125 | 60073 ft | 1061 kts | 218° |
| 2026-05-07 14:58 | 19.39213 | -54.51736 | 60070 ft | 1062 kts | 218° |
| 2026-05-07 14:58 | 19.27544 | -54.61324 | 60066 ft | 1062 kts | 218° |
| 2026-05-07 14:59 | 19.15869 | -54.70900 | 60077 ft | 1062 kts | 218° |
| 2026-05-07 14:59 | 19.04177 | -54.80471 | 60075 ft | 1062 kts | 218° |
| 2026-05-07 15:00 | 18.92486 | -54.90024 | 60062 ft | 1063 kts | 218° |
| 2026-05-07 15:00 | 18.80788 | -54.99566 | 60063 ft | 1063 kts | 218° |
| 2026-05-07 15:01 | 18.69075 | -55.09103 | 60056 ft | 1063 kts | 218° |
| 2026-05-07 15:01 | 18.57361 | -55.18623 | 60072 ft | 1062 kts | 218° |
| 2026-05-07 15:02 | 18.45646 | -55.28127 | 60070 ft | 1064 kts | 218° |
| 2026-05-07 15:02 | 18.33917 | -55.37625 | 60058 ft | 1065 kts | 218° |
| 2026-05-07 15:03 | 18.22177 | -55.47117 | 60061 ft | 1064 kts | 218° |
| 2026-05-07 15:03 | 18.10425 | -55.56600 | 60058 ft | 1065 kts | 218° |
| 2026-05-07 15:04 | 17.98662 | -55.66081 | 60057 ft | 1065 kts | 221° |
| 2026-05-07 15:04 | 17.87383 | -55.76134 | 60109 ft | 1063 kts | 221° |
| 2026-05-07 15:05 | 17.76001 | -55.86176 | 60091 ft | 1075 kts | 220° |
| 2026-05-07 15:05 | 17.64605 | -55.96199 | 59607 ft | 1050 kts | 220° |
| 2026-05-07 15:06 | 17.59065 | -56.01067 | 58897 ft | 1029 kts | 220° |
| 2026-05-07 15:06 | 17.53633 | -56.05835 | 58185 ft | 1007 kts | 220° |
| 2026-05-07 15:06 | 17.48317 | -56.10499 | 57476 ft | 986 kts | 220° |
| 2026-05-07 15:06 | 17.43117 | -56.15057 | 56771 ft | 965 kts | 220° |
| 2026-05-07 15:07 | 17.38013 | -56.19528 | 56058 ft | 945 kts | 220° |
| 2026-05-07 15:07 | 17.33032 | -56.23888 | 55349 ft | 924 kts | 220° |
| 2026-05-07 15:07 | 17.28153 | -56.28155 | 54647 ft | 904 kts | 220° |
| 2026-05-07 15:07 | 17.23442 | -56.32273 | 53938 ft | 884 kts | 220° |
| 2026-05-07 15:08 | 17.18714 | -56.36402 | 53211 ft | 863 kts | 220° |
| 2026-05-07 15:08 | 17.14157 | -56.40380 | 52496 ft | 844 kts | 220° |
| 2026-05-07 15:08 | 17.09695 | -56.44272 | 51779 ft | 827 kts | 220° |
| 2026-05-07 15:08 | 17.05384 | -56.48029 | 51072 ft | 810 kts | 220° |
| 2026-05-07 15:09 | 17.01058 | -56.51798 | 50354 ft | 791 kts | 221° |
| 2026-05-07 15:09 | 16.96932 | -56.55390 | 49629 ft | 772 kts | 220° |
| 2026-05-07 15:09 | 16.92858 | -56.58935 | 48902 ft | 752 kts | 221° |
| 2026-05-07 15:09 | 16.88894 | -56.62383 | 48177 ft | 732 kts | 221° |
| 2026-05-07 15:10 | 16.85044 | -56.65729 | 47445 ft | 707 kts | 221° |
| 2026-05-07 15:10 | 16.81332 | -56.68953 | 46717 ft | 682 kts | 221° |
| 2026-05-07 15:10 | 16.77746 | -56.72066 | 45987 ft | 658 kts | 221° |
| 2026-05-07 15:10 | 16.74289 | -56.75067 | 45250 ft | 634 kts | 221° |
| 2026-05-07 15:11 | 16.70957 | -56.77957 | 44466 ft | 612 kts | 221° |
| 2026-05-07 15:11 | 16.67748 | -56.80739 | 43581 ft | 589 kts | 221° |
| 2026-05-07 15:11 | 16.64655 | -56.83419 | 42718 ft | 566 kts | 221° |
| 2026-05-07 15:11 | 16.61683 | -56.85994 | 41912 ft | 545 kts | 221° |
| 2026-05-07 15:12 | 16.58820 | -56.88473 | 41110 ft | 525 kts | 221° |
| 2026-05-07 15:12 | 16.56079 | -56.90845 | 40272 ft | 500 kts | 221° |
| 2026-05-07 15:12 | 16.53439 | -56.93130 | 39639 ft | 490 kts | 221° |
| 2026-05-07 15:12 | 16.50816 | -56.95401 | 39346 ft | 490 kts | 221° |
| 2026-05-07 15:13 | 16.48196 | -56.97666 | 39212 ft | 489 kts | 221° |
| 2026-05-07 15:13 | 16.45586 | -56.99921 | 39134 ft | 488 kts | 221° |
| 2026-05-07 15:13 | 16.40336 | -57.04455 | 38557 ft | 498 kts | 221° |
| 2026-05-07 15:14 | 16.37650 | -57.06774 | 37738 ft | 503 kts | 221° |
| 2026-05-07 15:14 | 16.34947 | -57.09106 | 36960 ft | 506 kts | 221° |
| 2026-05-07 15:14 | 16.32225 | -57.11454 | 36212 ft | 509 kts | 221° |
| 2026-05-07 15:14 | 16.29489 | -57.13813 | 35498 ft | 513 kts | 221° |
| 2026-05-07 15:15 | 16.26733 | -57.16189 | 34783 ft | 516 kts | 221° |
| 2026-05-07 15:15 | 16.23955 | -57.18583 | 34092 ft | 520 kts | 221° |
| 2026-05-07 15:15 | 16.21160 | -57.20991 | 33318 ft | 524 kts | 221° |
| 2026-05-07 15:15 | 16.18340 | -57.23420 | 32550 ft | 529 kts | 221° |
| 2026-05-07 15:16 | 16.15492 | -57.25871 | 31820 ft | 534 kts | 221° |
| 2026-05-07 15:16 | 16.12614 | -57.28347 | 31091 ft | 539 kts | 221° |
| 2026-05-07 15:16 | 16.09711 | -57.30843 | 30385 ft | 544 kts | 221° |
| 2026-05-07 15:16 | 16.06781 | -57.33362 | 29601 ft | 549 kts | 221° |
| 2026-05-07 15:17 | 16.03825 | -57.35902 | 28818 ft | 553 kts | 221° |
| 2026-05-07 15:17 | 16.00853 | -57.38455 | 28043 ft | 556 kts | 220° |
| 2026-05-07 15:17 | 15.97865 | -57.41021 | 27287 ft | 559 kts | 220° |
| 2026-05-07 15:17 | 15.94858 | -57.43602 | 26553 ft | 563 kts | 220° |
| 2026-05-07 15:18 | 15.91832 | -57.46198 | 25838 ft | 566 kts | 220° |
| 2026-05-07 15:18 | 15.88786 | -57.48811 | 25325 ft | 567 kts | 220° |
| 2026-05-07 15:18 | 15.85755 | -57.51408 | 25190 ft | 565 kts | 220° |
| 2026-05-07 15:18 | 15.82719 | -57.54010 | 25125 ft | 567 kts | 220° |
| 2026-05-07 15:19 | 15.79715 | -57.56584 | 25099 ft | 568 kts | 220° |
| 2026-05-07 15:19 | 15.76628 | -57.59228 | 25087 ft | 567 kts | 220° |
| 2026-05-07 15:19 | 15.73627 | -57.61796 | 25075 ft | 568 kts | 220° |
| 2026-05-07 15:19 | 15.70537 | -57.64440 | 25073 ft | 568 kts | 220° |
| 2026-05-07 15:20 | 15.67530 | -57.67011 | 25070 ft | 568 kts | 220° |
| 2026-05-07 15:20 | 15.64475 | -57.69623 | 25073 ft | 569 kts | 220° |
| 2026-05-07 15:20 | 15.61379 | -57.72269 | 25070 ft | 569 kts | 220° |
| 2026-05-07 15:20 | 15.58367 | -57.74841 | 25070 ft | 569 kts | 220° |
| 2026-05-07 15:21 | 15.55309 | -57.77453 | 25066 ft | 569 kts | 220° |
| 2026-05-07 15:21 | 15.52250 | -57.80064 | 25062 ft | 570 kts | 220° |
| 2026-05-07 15:21 | 15.49190 | -57.82674 | 25061 ft | 569 kts | 220° |
| 2026-05-07 15:21 | 15.46129 | -57.85285 | 25060 ft | 570 kts | 220° |
| 2026-05-07 15:22 | 15.43069 | -57.87894 | 25059 ft | 570 kts | 220° |
| 2026-05-07 15:22 | 15.40004 | -57.90506 | 25058 ft | 570 kts | 220° |
| 2026-05-07 15:22 | 15.36942 | -57.93114 | 25057 ft | 570 kts | 220° |
| 2026-05-07 15:22 | 15.33876 | -57.95725 | 25058 ft | 570 kts | 220° |
| 2026-05-07 15:23 | 15.30810 | -57.98334 | 25056 ft | 568 kts | 220° |
| 2026-05-07 15:23 | 15.27768 | -58.00910 | 25049 ft | 559 kts | 220° |
| 2026-05-07 15:23 | 15.24836 | -58.03405 | 25041 ft | 532 kts | 220° |
| 2026-05-07 15:23 | 15.22043 | -58.05787 | 25041 ft | 510 kts | 220° |
| 2026-05-07 15:24 | 15.19355 | -58.08077 | 25040 ft | 491 kts | 221° |
| 2026-05-07 15:24 | 15.16760 | -58.10285 | 25047 ft | 475 kts | 221° |
| 2026-05-07 15:24 | 15.14245 | -58.12423 | 25045 ft | 462 kts | 221° |
| 2026-05-07 15:24 | 15.11795 | -58.14503 | 25041 ft | 450 kts | 221° |
| 2026-05-07 15:25 | 15.09406 | -58.16529 | 25044 ft | 439 kts | 221° |
| 2026-05-07 15:25 | 15.07071 | -58.18509 | 25041 ft | 429 kts | 221° |
| 2026-05-07 15:25 | 15.04788 | -58.20444 | 25043 ft | 420 kts | 221° |
| 2026-05-07 15:25 | 15.02551 | -58.22340 | 25042 ft | 412 kts | 221° |
| 2026-05-07 15:26 | 15.00352 | -58.24204 | 25040 ft | 405 kts | 221° |
| 2026-05-07 15:26 | 14.98197 | -58.26033 | 25040 ft | 393 kts | 221° |
| 2026-05-07 15:26 | 14.96150 | -58.27779 | 25043 ft | 371 kts | 221° |
| 2026-05-07 15:26 | 14.94207 | -58.29421 | 25044 ft | 350 kts | 221° |
| 2026-05-07 15:27 | 14.92369 | -58.30968 | 25041 ft | 331 kts | 221° |
| 2026-05-07 15:27 | 14.90630 | -58.32434 | 25035 ft | 313 kts | 221° |
| 2026-05-07 15:27 | 14.88994 | -58.33818 | 25035 ft | 295 kts | 221° |
| 2026-05-07 15:27 | 14.87457 | -58.35121 | 25034 ft | 278 kts | 221° |
| 2026-05-07 15:28 | 14.86469 | -58.35958 | 25041 ft | 266 kts | 221° |
| 2026-05-07 15:28 | 14.85080 | -58.37136 | 25039 ft | 250 kts | 221° |
| 2026-05-07 15:28 | 14.83781 | -58.38236 | 25032 ft | 234 kts | 221° |
| 2026-05-07 15:28 | 14.82540 | -58.39287 | 24674 ft | 234 kts | 221° |
| 2026-05-07 15:29 | 14.81233 | -58.40400 | 23975 ft | 252 kts | 221° |
| 2026-05-07 15:29 | 14.79836 | -58.41585 | 23243 ft | 266 kts | 221° |
| 2026-05-07 15:29 | 14.78368 | -58.42822 | 22469 ft | 278 kts | 221° |
| 2026-05-07 15:29 | 14.76860 | -58.44092 | 21734 ft | 289 kts | 221° |
| 2026-05-07 15:30 | 14.75277 | -58.45425 | 21010 ft | 298 kts | 221° |
| 2026-05-07 15:30 | 14.73645 | -58.46806 | 20350 ft | 306 kts | 221° |
| 2026-05-07 15:30 | 14.72019 | -58.48178 | 19903 ft | 304 kts | 221° |
| 2026-05-07 15:30 | 14.70363 | -58.49576 | 19231 ft | 311 kts | 221° |
| 2026-05-07 15:31 | 14.68640 | -58.51024 | 18562 ft | 332 kts | 221° |
| 2026-05-07 15:31 | 14.66785 | -58.52581 | 17829 ft | 354 kts | 222° |
| 2026-05-07 15:31 | 14.64785 | -58.54269 | 17068 ft | 391 kts | 221° |
| 2026-05-07 15:31 | 14.62589 | -58.56122 | 16344 ft | 424 kts | 221° |
| 2026-05-07 15:32 | 14.60225 | -58.58132 | 15621 ft | 462 kts | 221° |
| 2026-05-07 15:32 | 14.57621 | -58.60361 | 14930 ft | 508 kts | 221° |
| 2026-05-07 15:32 | 14.54876 | -58.62684 | 14232 ft | 504 kts | 220° |
| 2026-05-07 15:32 | 14.52169 | -58.64954 | 13501 ft | 502 kts | 220° |
| 2026-05-07 15:33 | 14.49481 | -58.67199 | 12753 ft | 494 kts | 220° |
| 2026-05-07 15:33 | 14.46823 | -58.69431 | 12352 ft | 490 kts | 220° |
| 2026-05-07 15:33 | 14.44189 | -58.71650 | 12198 ft | 488 kts | 220° |
| 2026-05-07 15:33 | 14.41554 | -58.73870 | 12129 ft | 488 kts | 220° |
| 2026-05-07 15:34 | 14.38927 | -58.76082 | 12080 ft | 487 kts | 220° |
| 2026-05-07 15:34 | 14.36302 | -58.78290 | 12078 ft | 487 kts | 220° |
| 2026-05-07 15:34 | 14.33674 | -58.80500 | 12066 ft | 487 kts | 220° |
| 2026-05-07 15:34 | 14.31046 | -58.82709 | 12062 ft | 487 kts | 220° |
| 2026-05-07 15:35 | 14.28415 | -58.84920 | 12059 ft | 488 kts | 220° |
| 2026-05-07 15:35 | 14.25787 | -58.87129 | 12058 ft | 488 kts | 220° |
| 2026-05-07 15:35 | 14.23155 | -58.89339 | 12053 ft | 488 kts | 220° |
| 2026-05-07 15:35 | 14.20524 | -58.91548 | 12062 ft | 488 kts | 220° |
| 2026-05-07 15:36 | 14.17896 | -58.93754 | 12053 ft | 487 kts | 220° |
| 2026-05-07 15:36 | 14.15263 | -58.95964 | 12061 ft | 488 kts | 220° |
| 2026-05-07 15:36 | 14.12630 | -58.98173 | 12053 ft | 488 kts | 220° |
| 2026-05-07 15:36 | 14.09998 | -59.00380 | 12054 ft | 488 kts | 220° |
| 2026-05-07 15:37 | 14.07361 | -59.02591 | 12050 ft | 489 kts | 220° |
| 2026-05-07 15:37 | 14.04723 | -59.04802 | 12050 ft | 489 kts | 220° |
| 2026-05-07 15:37 | 14.02086 | -59.07011 | 12048 ft | 489 kts | 220° |
| 2026-05-07 15:37 | 13.99488 | -59.09188 | 12057 ft | 488 kts | 220° |
| 2026-05-07 15:38 | 13.96816 | -59.11425 | 12055 ft | 489 kts | 220° |
| 2026-05-07 15:38 | 13.94213 | -59.13604 | 12051 ft | 489 kts | 220° |
| 2026-05-07 15:38 | 13.91574 | -59.15813 | 12054 ft | 489 kts | 220° |
| 2026-05-07 15:38 | 13.88934 | -59.18021 | 12047 ft | 489 kts | 220° |
| 2026-05-07 15:39 | 13.86258 | -59.20259 | 12043 ft | 489 kts | 220° |
| 2026-05-07 15:39 | 13.83620 | -59.22465 | 12042 ft | 489 kts | 220° |
| 2026-05-07 15:39 | 13.81020 | -59.24639 | 12042 ft | 489 kts | 220° |
| 2026-05-07 15:39 | 13.78370 | -59.26853 | 12039 ft | 489 kts | 220° |
| 2026-05-07 15:40 | 13.75694 | -59.29088 | 12043 ft | 489 kts | 220° |
| 2026-05-07 15:40 | 13.73049 | -59.31297 | 12038 ft | 490 kts | 220° |
| 2026-05-07 15:40 | 13.70440 | -59.33475 | 12035 ft | 490 kts | 220° |
| 2026-05-07 15:40 | 13.67793 | -59.35685 | 12039 ft | 490 kts | 220° |
| 2026-05-07 15:41 | 13.65155 | -59.37886 | 12037 ft | 490 kts | 220° |
| 2026-05-07 15:41 | 13.62498 | -59.40102 | 12043 ft | 491 kts | 219° |
| 2026-05-07 15:41 | 13.59814 | -59.42340 | 12038 ft | 490 kts | 219° |
| 2026-05-07 15:41 | 13.57199 | -59.44520 | 12036 ft | 490 kts | 219° |
| 2026-05-07 15:42 | 13.54551 | -59.46727 | 12037 ft | 491 kts | 219° |
| 2026-05-07 15:42 | 13.51901 | -59.48935 | 12035 ft | 490 kts | 219° |
| 2026-05-07 15:42 | 13.49259 | -59.51151 | 12034 ft | 490 kts | 220° |
| 2026-05-07 15:42 | 13.46640 | -59.53402 | 12032 ft | 491 kts | 220° |
| 2026-05-07 15:43 | 13.44035 | -59.55668 | 12033 ft | 491 kts | 221° |
| 2026-05-07 15:43 | 13.41432 | -59.57945 | 12017 ft | 491 kts | 221° |
| 2026-05-07 15:43 | 13.38853 | -59.60208 | 11285 ft | 476 kts | 221° |
| 2026-05-07 15:43 | 13.36399 | -59.62374 | 10553 ft | 454 kts | 221° |
| 2026-05-07 15:44 | 13.34059 | -59.64453 | 9848 ft | 436 kts | 221° |
| 2026-05-07 15:44 | 13.31811 | -59.66466 | 9070 ft | 422 kts | 221° |
| 2026-05-07 15:44 | 13.29636 | -59.68421 | 8324 ft | 409 kts | 221° |
| 2026-05-07 15:44 | 13.27520 | -59.70317 | 7592 ft | 399 kts | 219° |
| 2026-05-07 15:45 | 13.25160 | -59.71715 | 6897 ft | 389 kts | 199° |
| 2026-05-07 15:45 | 13.22630 | -59.72581 | 6426 ft | 376 kts | 198° |
| 2026-05-07 15:45 | 13.20186 | -59.73415 | 5800 ft | 368 kts | 198° |
| 2026-05-07 15:45 | 13.17768 | -59.74246 | 5069 ft | 365 kts | 198° |
| 2026-05-07 15:46 | 13.12955 | -59.75801 | 3626 ft | 360 kts | 194° |
| 2026-05-07 15:46 | 13.10557 | -59.76520 | 2863 ft | 358 kts | 194° |
| 2026-05-07 15:46 | 13.08157 | -59.77082 | 2365 ft | 347 kts | 179° |
| 2026-05-07 15:47 | 13.05834 | -59.76862 | 2181 ft | 326 kts | 167° |
| 2026-05-07 15:47 | 13.03675 | -59.76409 | 2078 ft | 307 kts | 158° |
| 2026-05-07 15:47 | 13.01985 | -59.75278 | 2077 ft | 280 kts | 124° |
| 2026-05-07 15:47 | 13.01283 | -59.73552 | 2110 ft | 255 kts | 90° |
| 2026-05-07 15:48 | 13.01584 | -59.71846 | 2080 ft | 236 kts | 72° |
| 2026-05-07 15:48 | 13.02092 | -59.70316 | 2014 ft | 217 kts | 70° |
| 2026-05-07 15:48 | 13.02580 | -59.68940 | 1914 ft | 193 kts | 70° |
| 2026-05-07 15:48 | 13.03021 | -59.67661 | 1817 ft | 187 kts | 71° |
| 2026-05-07 15:49 | 13.03417 | -59.66391 | 1738 ft | 190 kts | 73° |
| 2026-05-07 15:49 | 13.03770 | -59.65087 | 1705 ft | 188 kts | 76° |
| 2026-05-07 15:49 | 13.04077 | -59.63802 | 1632 ft | 186 kts | 77° |
| 2026-05-07 15:49 | 13.04352 | -59.62487 | 1548 ft | 189 kts | 77° |
| 2026-05-07 15:50 | 13.04606 | -59.61155 | 1493 ft | 194 kts | 84° |
| 2026-05-07 15:50 | 13.04638 | -59.59793 | 1693 ft | 181 kts | 76° |
| 2026-05-07 15:50 | 13.04999 | -59.58629 | 1842 ft | 171 kts | 68° |
| 2026-05-07 15:50 | 13.05454 | -59.57427 | 1559 ft | 188 kts | 70° |
| 2026-05-07 15:51 | 13.05819 | -59.56113 | 1376 ft | 197 kts | 77° |
| 2026-05-07 15:51 | 13.06107 | -59.54737 | 1129 ft | 193 kts | 76° |
| 2026-05-07 15:51 | 13.06421 | -59.53448 | 845 ft | 182 kts | 75° |
| 2026-05-07 15:51 | 13.06733 | -59.52246 | 562 ft | 171 kts | 78° |
| 2026-05-07 15:52 | 13.07010 | -59.51078 | 277 ft | 162 kts | 76° |
| 2026-05-07 15:52 | 13.07272 | -59.50003 | 196 ft | 145 kts | 75° |
| 2026-05-07 15:52 | 13.07484 | -59.49146 | 182 ft | 90 kts | 74° |
| 2026-05-07 15:52 | 13.07593 | -59.48719 | 183 ft | 56 kts | 76° |
| 2026-05-07 15:53 | 13.07674 | -59.48372 | 181 ft | 38 kts | 69° |
| 2026-05-07 15:53 | 13.07749 | -59.48341 | 180 ft | 17 kts | 337° |
| 2026-05-07 15:53 | 13.07854 | -59.48390 | 182 ft | 11 kts | 294° |
| 2026-05-07 15:53 | 13.07838 | -59.48521 | 182 ft | 20 kts | 254° |
| 2026-05-07 15:54 | 13.07809 | -59.48628 | 182 ft | 13 kts | 254° |
| 2026-05-07 15:54 | 13.07841 | -59.48673 | 182 ft | 11 kts | 338° |
| 2026-05-07 15:54 | 13.07899 | -59.48690 | 182 ft | 0 kts | 344° |
| 2026-05-07 15:54 | 13.07900 | -59.48690 | 182 ft | 0 kts | 345° |